sensor_id;sensor_type;location;lat;lon;timestamp;P1;durP1;ratioP1;P2;durP2;ratioP2
1725;SDS011;41776;48.260;8.928;2023-09-08T00:02:23;6.32;;;4.75;;
1725;SDS011;41776;48.260;8.928;2023-09-08T00:04:50;9.20;;;5.30;;
1725;SDS011;41776;48.260;8.928;2023-09-08T00:07:17;9.35;;;5.32;;
1725;SDS011;41776;48.260;8.928;2023-09-08T00:09:50;12.80;;;4.93;;
1725;SDS011;41776;48.260;8.928;2023-09-08T00:12:16;10.43;;;4.95;;
1725;SDS011;41776;48.260;8.928;2023-09-08T00:14:43;9.32;;;5.35;;
1725;SDS011;41776;48.260;8.928;2023-09-08T00:17:14;8.27;;;4.95;;
1725;SDS011;41776;48.260;8.928;2023-09-08T00:19:41;8.98;;;4.88;;
1725;SDS011;41776;48.260;8.928;2023-09-08T00:22:10;8.23;;;5.05;;
1725;SDS011;41776;48.260;8.928;2023-09-08T00:24:38;8.27;;;5.28;;
1725;SDS011;41776;48.260;8.928;2023-09-08T00:27:06;7.63;;;4.95;;
1725;SDS011;41776;48.260;8.928;2023-09-08T00:29:34;11.23;;;5.50;;
1725;SDS011;41776;48.260;8.928;2023-09-08T00:32:00;8.15;;;5.35;;
1725;SDS011;41776;48.260;8.928;2023-09-08T00:34:33;10.73;;;5.28;;
1725;SDS011;41776;48.260;8.928;2023-09-08T00:37:02;10.07;;;4.93;;
1725;SDS011;41776;48.260;8.928;2023-09-08T00:39:32;10.80;;;5.22;;
1725;SDS011;41776;48.260;8.928;2023-09-08T00:42:01;10.18;;;5.10;;
1725;SDS011;41776;48.260;8.928;2023-09-08T00:44:29;7.35;;;4.57;;
1725;SDS011;41776;48.260;8.928;2023-09-08T00:46:55;8.43;;;5.00;;
1725;SDS011;41776;48.260;8.928;2023-09-08T00:49:22;10.15;;;5.18;;
1725;SDS011;41776;48.260;8.928;2023-09-08T00:51:54;6.90;;;4.97;;
1725;SDS011;41776;48.260;8.928;2023-09-08T00:54:21;8.52;;;5.05;;
1725;SDS011;41776;48.260;8.928;2023-09-08T00:56:50;10.45;;;5.35;;
1725;SDS011;41776;48.260;8.928;2023-09-08T00:59:22;9.85;;;5.28;;
1725;SDS011;41776;48.260;8.928;2023-09-08T01:01:49;8.18;;;5.28;;
1725;SDS011;41776;48.260;8.928;2023-09-08T01:04:24;9.43;;;5.50;;
1725;SDS011;41776;48.260;8.928;2023-09-08T01:06:51;11.25;;;5.25;;
1725;SDS011;41776;48.260;8.928;2023-09-08T01:09:19;14.25;;;5.15;;
1725;SDS011;41776;48.260;8.928;2023-09-08T01:11:46;8.13;;;5.45;;
1725;SDS011;41776;48.260;8.928;2023-09-08T01:14:13;15.40;;;5.70;;
1725;SDS011;41776;48.260;8.928;2023-09-08T01:16:43;8.93;;;5.47;;
1725;SDS011;41776;48.260;8.928;2023-09-08T01:19:11;10.20;;;5.60;;
1725;SDS011;41776;48.260;8.928;2023-09-08T01:21:49;10.57;;;5.65;;
1725;SDS011;41776;48.260;8.928;2023-09-08T01:24:37;8.90;;;5.03;;
1725;SDS011;41776;48.260;8.928;2023-09-08T01:27:17;13.07;;;6.25;;
1725;SDS011;41776;48.260;8.928;2023-09-08T01:29:46;9.65;;;6.22;;
1725;SDS011;41776;48.260;8.928;2023-09-08T01:32:16;9.20;;;5.45;;
1725;SDS011;41776;48.260;8.928;2023-09-08T01:34:44;10.68;;;6.00;;
1725;SDS011;41776;48.260;8.928;2023-09-08T01:37:10;8.07;;;5.68;;
1725;SDS011;41776;48.260;8.928;2023-09-08T01:39:38;9.52;;;6.00;;
1725;SDS011;41776;48.260;8.928;2023-09-08T01:42:05;9.40;;;5.20;;
1725;SDS011;41776;48.260;8.928;2023-09-08T01:44:33;9.95;;;5.65;;
1725;SDS011;41776;48.260;8.928;2023-09-08T01:47:01;7.95;;;5.72;;
1725;SDS011;41776;48.260;8.928;2023-09-08T01:49:27;11.95;;;5.55;;
1725;SDS011;41776;48.260;8.928;2023-09-08T01:51:59;9.48;;;5.63;;
1725;SDS011;41776;48.260;8.928;2023-09-08T01:54:28;8.13;;;5.85;;
1725;SDS011;41776;48.260;8.928;2023-09-08T01:56:57;12.55;;;5.75;;
1725;SDS011;41776;48.260;8.928;2023-09-08T01:59:24;8.75;;;5.53;;
1725;SDS011;41776;48.260;8.928;2023-09-08T02:01:52;16.35;;;5.93;;
1725;SDS011;41776;48.260;8.928;2023-09-08T02:04:18;8.15;;;5.35;;
1725;SDS011;41776;48.260;8.928;2023-09-08T02:06:45;7.32;;;5.35;;
1725;SDS011;41776;48.260;8.928;2023-09-08T02:09:13;8.73;;;5.93;;
1725;SDS011;41776;48.260;8.928;2023-09-08T02:11:40;7.68;;;5.25;;
1725;SDS011;41776;48.260;8.928;2023-09-08T02:14:07;11.63;;;6.10;;
1725;SDS011;41776;48.260;8.928;2023-09-08T02:16:35;12.00;;;5.78;;
1725;SDS011;41776;48.260;8.928;2023-09-08T02:19:06;11.50;;;6.38;;
1725;SDS011;41776;48.260;8.928;2023-09-08T02:21:32;9.90;;;5.97;;
1725;SDS011;41776;48.260;8.928;2023-09-08T02:24:05;10.73;;;6.10;;
1725;SDS011;41776;48.260;8.928;2023-09-08T02:26:37;9.20;;;6.38;;
1725;SDS011;41776;48.260;8.928;2023-09-08T02:29:05;9.48;;;5.95;;
1725;SDS011;41776;48.260;8.928;2023-09-08T02:31:32;12.18;;;6.15;;
1725;SDS011;41776;48.260;8.928;2023-09-08T02:34:01;12.00;;;6.88;;
1725;SDS011;41776;48.260;8.928;2023-09-08T02:36:30;10.38;;;6.35;;
1725;SDS011;41776;48.260;8.928;2023-09-08T02:39:00;10.18;;;6.55;;
1725;SDS011;41776;48.260;8.928;2023-09-08T02:41:26;8.32;;;5.78;;
1725;SDS011;41776;48.260;8.928;2023-09-08T02:43:53;11.07;;;6.45;;
1725;SDS011;41776;48.260;8.928;2023-09-08T02:46:37;13.00;;;6.88;;
1725;SDS011;41776;48.260;8.928;2023-09-08T02:49:04;13.45;;;6.75;;
1725;SDS011;41776;48.260;8.928;2023-09-08T02:51:31;9.88;;;6.53;;
1725;SDS011;41776;48.260;8.928;2023-09-08T02:53:58;11.40;;;6.90;;
1725;SDS011;41776;48.260;8.928;2023-09-08T02:56:31;9.65;;;6.13;;
1725;SDS011;41776;48.260;8.928;2023-09-08T02:59:01;10.57;;;6.35;;
1725;SDS011;41776;48.260;8.928;2023-09-08T03:01:27;9.57;;;6.82;;
1725;SDS011;41776;48.260;8.928;2023-09-08T03:03:58;14.05;;;7.40;;
1725;SDS011;41776;48.260;8.928;2023-09-08T03:06:26;11.55;;;7.57;;
1725;SDS011;41776;48.260;8.928;2023-09-08T03:08:53;11.05;;;7.28;;
1725;SDS011;41776;48.260;8.928;2023-09-08T03:11:19;14.63;;;6.97;;
1725;SDS011;41776;48.260;8.928;2023-09-08T03:13:46;10.82;;;7.90;;
1725;SDS011;41776;48.260;8.928;2023-09-08T03:16:12;10.70;;;7.57;;
1725;SDS011;41776;48.260;8.928;2023-09-08T03:18:39;10.77;;;7.32;;
1725;SDS011;41776;48.260;8.928;2023-09-08T03:21:07;11.73;;;7.30;;
1725;SDS011;41776;48.260;8.928;2023-09-08T03:23:36;11.63;;;8.48;;
1725;SDS011;41776;48.260;8.928;2023-09-08T03:26:05;10.50;;;7.75;;
1725;SDS011;41776;48.260;8.928;2023-09-08T03:28:32;11.63;;;7.22;;
1725;SDS011;41776;48.260;8.928;2023-09-08T03:31:00;14.77;;;7.93;;
1725;SDS011;41776;48.260;8.928;2023-09-08T03:33:27;12.23;;;7.03;;
1725;SDS011;41776;48.260;8.928;2023-09-08T03:35:56;13.00;;;7.50;;
1725;SDS011;41776;48.260;8.928;2023-09-08T03:38:24;12.80;;;8.18;;
1725;SDS011;41776;48.260;8.928;2023-09-08T03:40:51;11.88;;;8.00;;
1725;SDS011;41776;48.260;8.928;2023-09-08T03:43:19;12.57;;;8.20;;
1725;SDS011;41776;48.260;8.928;2023-09-08T03:45:46;10.75;;;7.93;;
1725;SDS011;41776;48.260;8.928;2023-09-08T03:48:16;13.10;;;8.60;;
1725;SDS011;41776;48.260;8.928;2023-09-08T03:50:48;12.60;;;7.20;;
1725;SDS011;41776;48.260;8.928;2023-09-08T03:53:15;13.63;;;8.10;;
1725;SDS011;41776;48.260;8.928;2023-09-08T03:55:43;10.50;;;8.30;;
1725;SDS011;41776;48.260;8.928;2023-09-08T03:58:09;18.73;;;8.43;;
1725;SDS011;41776;48.260;8.928;2023-09-08T04:00:36;13.82;;;8.00;;
1725;SDS011;41776;48.260;8.928;2023-09-08T04:03:03;15.77;;;9.18;;
1725;SDS011;41776;48.260;8.928;2023-09-08T04:05:30;15.35;;;8.15;;
1725;SDS011;41776;48.260;8.928;2023-09-08T04:07:56;12.18;;;8.20;;
1725;SDS011;41776;48.260;8.928;2023-09-08T04:10:23;12.52;;;7.95;;
1725;SDS011;41776;48.260;8.928;2023-09-08T04:12:51;13.95;;;8.60;;
1725;SDS011;41776;48.260;8.928;2023-09-08T04:15:17;13.65;;;8.85;;
1725;SDS011;41776;48.260;8.928;2023-09-08T04:17:45;16.10;;;8.30;;
1725;SDS011;41776;48.260;8.928;2023-09-08T04:20:14;14.35;;;8.40;;
1725;SDS011;41776;48.260;8.928;2023-09-08T04:22:41;12.30;;;8.70;;
1725;SDS011;41776;48.260;8.928;2023-09-08T04:25:08;11.73;;;8.02;;
1725;SDS011;41776;48.260;8.928;2023-09-08T04:27:35;15.38;;;8.82;;
1725;SDS011;41776;48.260;8.928;2023-09-08T04:30:05;15.18;;;8.88;;
1725;SDS011;41776;48.260;8.928;2023-09-08T04:32:32;12.15;;;8.50;;
1725;SDS011;41776;48.260;8.928;2023-09-08T04:34:59;15.98;;;9.07;;
1725;SDS011;41776;48.260;8.928;2023-09-08T04:37:25;13.05;;;8.95;;
1725;SDS011;41776;48.260;8.928;2023-09-08T04:39:52;13.40;;;9.07;;
1725;SDS011;41776;48.260;8.928;2023-09-08T04:42:22;13.55;;;8.60;;
1725;SDS011;41776;48.260;8.928;2023-09-08T04:44:49;14.37;;;9.23;;
1725;SDS011;41776;48.260;8.928;2023-09-08T04:47:18;14.20;;;8.80;;
1725;SDS011;41776;48.260;8.928;2023-09-08T04:49:44;13.93;;;9.23;;
1725;SDS011;41776;48.260;8.928;2023-09-08T04:52:11;14.45;;;9.32;;
1725;SDS011;41776;48.260;8.928;2023-09-08T04:54:41;13.50;;;9.15;;
1725;SDS011;41776;48.260;8.928;2023-09-08T04:57:08;16.48;;;10.18;;
1725;SDS011;41776;48.260;8.928;2023-09-08T04:59:35;13.18;;;9.38;;
1725;SDS011;41776;48.260;8.928;2023-09-08T05:02:04;17.30;;;9.30;;
1725;SDS011;41776;48.260;8.928;2023-09-08T05:04:32;16.25;;;9.93;;
1725;SDS011;41776;48.260;8.928;2023-09-08T05:06:58;13.70;;;8.68;;
1725;SDS011;41776;48.260;8.928;2023-09-08T05:09:25;16.50;;;10.15;;
1725;SDS011;41776;48.260;8.928;2023-09-08T05:11:51;18.77;;;10.35;;
1725;SDS011;41776;48.260;8.928;2023-09-08T05:14:18;15.65;;;9.77;;
1725;SDS011;41776;48.260;8.928;2023-09-08T05:16:44;13.82;;;10.15;;
1725;SDS011;41776;48.260;8.928;2023-09-08T05:19:12;13.63;;;9.40;;
1725;SDS011;41776;48.260;8.928;2023-09-08T05:21:40;18.58;;;10.55;;
1725;SDS011;41776;48.260;8.928;2023-09-08T05:24:08;14.98;;;10.73;;
1725;SDS011;41776;48.260;8.928;2023-09-08T05:26:36;14.88;;;9.73;;
1725;SDS011;41776;48.260;8.928;2023-09-08T05:29:03;15.35;;;10.20;;
1725;SDS011;41776;48.260;8.928;2023-09-08T05:31:30;15.38;;;9.80;;
1725;SDS011;41776;48.260;8.928;2023-09-08T05:33:57;16.60;;;12.30;;
1725;SDS011;41776;48.260;8.928;2023-09-08T05:36:23;15.98;;;10.73;;
1725;SDS011;41776;48.260;8.928;2023-09-08T05:38:51;14.70;;;10.38;;
1725;SDS011;41776;48.260;8.928;2023-09-08T05:41:19;16.55;;;10.70;;
1725;SDS011;41776;48.260;8.928;2023-09-08T05:43:46;14.30;;;9.43;;
1725;SDS011;41776;48.260;8.928;2023-09-08T05:46:13;13.75;;;9.10;;
1725;SDS011;41776;48.260;8.928;2023-09-08T05:48:39;11.52;;;8.32;;
1725;SDS011;41776;48.260;8.928;2023-09-08T05:51:06;15.85;;;9.50;;
1725;SDS011;41776;48.260;8.928;2023-09-08T05:53:33;15.23;;;9.57;;
1725;SDS011;41776;48.260;8.928;2023-09-08T05:56:06;16.58;;;10.68;;
1725;SDS011;41776;48.260;8.928;2023-09-08T05:58:33;20.10;;;11.60;;
1725;SDS011;41776;48.260;8.928;2023-09-08T06:01:00;17.55;;;11.98;;
1725;SDS011;41776;48.260;8.928;2023-09-08T06:03:27;17.25;;;11.63;;
1725;SDS011;41776;48.260;8.928;2023-09-08T06:05:53;16.85;;;10.60;;
1725;SDS011;41776;48.260;8.928;2023-09-08T06:08:20;17.27;;;11.43;;
1725;SDS011;41776;48.260;8.928;2023-09-08T06:10:46;16.40;;;10.10;;
1725;SDS011;41776;48.260;8.928;2023-09-08T06:13:14;16.38;;;10.82;;
1725;SDS011;41776;48.260;8.928;2023-09-08T06:15:41;15.07;;;10.15;;
1725;SDS011;41776;48.260;8.928;2023-09-08T06:18:07;13.93;;;9.63;;
1725;SDS011;41776;48.260;8.928;2023-09-08T06:20:34;14.68;;;9.68;;
1725;SDS011;41776;48.260;8.928;2023-09-08T06:23:01;12.77;;;9.50;;
1725;SDS011;41776;48.260;8.928;2023-09-08T06:25:27;13.77;;;9.10;;
1725;SDS011;41776;48.260;8.928;2023-09-08T06:27:54;14.82;;;9.57;;
1725;SDS011;41776;48.260;8.928;2023-09-08T06:30:22;14.35;;;9.90;;
1725;SDS011;41776;48.260;8.928;2023-09-08T06:32:49;12.55;;;9.52;;
1725;SDS011;41776;48.260;8.928;2023-09-08T06:35:15;13.90;;;9.27;;
1725;SDS011;41776;48.260;8.928;2023-09-08T06:37:42;15.63;;;9.68;;
1725;SDS011;41776;48.260;8.928;2023-09-08T06:40:09;15.88;;;9.93;;
1725;SDS011;41776;48.260;8.928;2023-09-08T06:42:35;14.85;;;9.90;;
1725;SDS011;41776;48.260;8.928;2023-09-08T06:45:02;15.90;;;9.68;;
1725;SDS011;41776;48.260;8.928;2023-09-08T06:47:30;15.52;;;9.93;;
1725;SDS011;41776;48.260;8.928;2023-09-08T06:49:56;16.33;;;10.35;;
1725;SDS011;41776;48.260;8.928;2023-09-08T06:52:23;14.82;;;10.00;;
1725;SDS011;41776;48.260;8.928;2023-09-08T06:54:50;14.55;;;9.27;;
1725;SDS011;41776;48.260;8.928;2023-09-08T06:57:17;13.70;;;9.30;;
1725;SDS011;41776;48.260;8.928;2023-09-08T06:59:44;13.23;;;10.52;;
1725;SDS011;41776;48.260;8.928;2023-09-08T07:02:11;12.93;;;9.98;;
1725;SDS011;41776;48.260;8.928;2023-09-08T07:04:39;13.38;;;10.23;;
1725;SDS011;41776;48.260;8.928;2023-09-08T07:07:05;15.98;;;10.23;;
1725;SDS011;41776;48.260;8.928;2023-09-08T07:11:59;13.27;;;9.52;;
1725;SDS011;41776;48.260;8.928;2023-09-08T07:14:26;14.43;;;9.38;;
1725;SDS011;41776;48.260;8.928;2023-09-08T07:16:52;12.95;;;9.45;;
1725;SDS011;41776;48.260;8.928;2023-09-08T07:19:19;13.98;;;9.88;;
1725;SDS011;41776;48.260;8.928;2023-09-08T07:21:47;17.65;;;10.27;;
1725;SDS011;41776;48.260;8.928;2023-09-08T07:24:13;12.05;;;9.10;;
1725;SDS011;41776;48.260;8.928;2023-09-08T07:26:40;10.93;;;8.80;;
1725;SDS011;41776;48.260;8.928;2023-09-08T07:29:06;13.27;;;9.18;;
1725;SDS011;41776;48.260;8.928;2023-09-08T07:31:33;13.95;;;9.10;;
1725;SDS011;41776;48.260;8.928;2023-09-08T07:34:00;12.23;;;8.38;;
1725;SDS011;41776;48.260;8.928;2023-09-08T07:36:28;12.60;;;8.65;;
1725;SDS011;41776;48.260;8.928;2023-09-08T07:38:56;14.18;;;9.10;;
1725;SDS011;41776;48.260;8.928;2023-09-08T07:41:23;12.15;;;8.88;;
1725;SDS011;41776;48.260;8.928;2023-09-08T07:43:50;12.65;;;8.85;;
1725;SDS011;41776;48.260;8.928;2023-09-08T07:46:16;12.88;;;8.55;;
1725;SDS011;41776;48.260;8.928;2023-09-08T07:48:43;11.75;;;7.50;;
1725;SDS011;41776;48.260;8.928;2023-09-08T07:51:09;11.70;;;7.85;;
1725;SDS011;41776;48.260;8.928;2023-09-08T07:53:36;13.05;;;8.05;;
1725;SDS011;41776;48.260;8.928;2023-09-08T07:56:15;10.30;;;7.50;;
1725;SDS011;41776;48.260;8.928;2023-09-08T07:58:41;11.40;;;6.93;;
1725;SDS011;41776;48.260;8.928;2023-09-08T08:01:08;11.77;;;7.18;;
1725;SDS011;41776;48.260;8.928;2023-09-08T08:03:35;11.45;;;7.40;;
1725;SDS011;41776;48.260;8.928;2023-09-08T08:06:02;11.43;;;6.68;;
1725;SDS011;41776;48.260;8.928;2023-09-08T08:08:30;11.88;;;6.60;;
1725;SDS011;41776;48.260;8.928;2023-09-08T08:10:56;9.85;;;6.88;;
1725;SDS011;41776;48.260;8.928;2023-09-08T08:13:24;8.68;;;6.15;;
1725;SDS011;41776;48.260;8.928;2023-09-08T08:15:50;9.05;;;5.95;;
1725;SDS011;41776;48.260;8.928;2023-09-08T08:18:17;8.65;;;6.30;;
1725;SDS011;41776;48.260;8.928;2023-09-08T08:20:43;8.25;;;6.30;;
1725;SDS011;41776;48.260;8.928;2023-09-08T08:23:10;10.25;;;6.05;;
1725;SDS011;41776;48.260;8.928;2023-09-08T08:25:36;10.05;;;6.43;;
1725;SDS011;41776;48.260;8.928;2023-09-08T08:28:03;8.63;;;6.63;;
1725;SDS011;41776;48.260;8.928;2023-09-08T08:30:31;9.15;;;5.80;;
1725;SDS011;41776;48.260;8.928;2023-09-08T08:32:58;10.88;;;5.85;;
1725;SDS011;41776;48.260;8.928;2023-09-08T08:35:25;7.28;;;5.75;;
1725;SDS011;41776;48.260;8.928;2023-09-08T08:37:51;7.25;;;5.93;;
1725;SDS011;41776;48.260;8.928;2023-09-08T08:40:18;9.80;;;5.85;;
1725;SDS011;41776;48.260;8.928;2023-09-08T08:42:44;8.40;;;6.22;;
1725;SDS011;41776;48.260;8.928;2023-09-08T08:45:11;8.30;;;6.30;;
1725;SDS011;41776;48.260;8.928;2023-09-08T08:47:39;8.18;;;5.40;;
1725;SDS011;41776;48.260;8.928;2023-09-08T08:50:06;8.93;;;5.80;;
1725;SDS011;41776;48.260;8.928;2023-09-08T08:52:36;11.77;;;6.15;;
1725;SDS011;41776;48.260;8.928;2023-09-08T08:55:04;7.88;;;5.85;;
1725;SDS011;41776;48.260;8.928;2023-09-08T08:57:31;9.13;;;5.53;;
1725;SDS011;41776;48.260;8.928;2023-09-08T08:59:58;7.65;;;5.35;;
1725;SDS011;41776;48.260;8.928;2023-09-08T09:02:26;7.10;;;5.32;;
1725;SDS011;41776;48.260;8.928;2023-09-08T09:04:55;13.35;;;6.13;;
1725;SDS011;41776;48.260;8.928;2023-09-08T09:07:22;8.18;;;5.85;;
1725;SDS011;41776;48.260;8.928;2023-09-08T09:09:50;9.70;;;5.72;;
1725;SDS011;41776;48.260;8.928;2023-09-08T09:12:17;10.52;;;5.53;;
1725;SDS011;41776;48.260;8.928;2023-09-08T09:14:46;9.95;;;6.55;;
1725;SDS011;41776;48.260;8.928;2023-09-08T09:17:13;8.40;;;5.70;;
1725;SDS011;41776;48.260;8.928;2023-09-08T09:19:40;9.48;;;5.72;;
1725;SDS011;41776;48.260;8.928;2023-09-08T09:22:08;10.35;;;5.72;;
1725;SDS011;41776;48.260;8.928;2023-09-08T09:24:35;7.75;;;5.97;;
1725;SDS011;41776;48.260;8.928;2023-09-08T09:27:05;12.15;;;5.63;;
1725;SDS011;41776;48.260;8.928;2023-09-08T09:29:32;9.05;;;5.43;;
1725;SDS011;41776;48.260;8.928;2023-09-08T09:32:02;9.77;;;5.35;;
1725;SDS011;41776;48.260;8.928;2023-09-08T09:34:29;10.73;;;6.50;;
1725;SDS011;41776;48.260;8.928;2023-09-08T09:36:56;10.68;;;5.70;;
1725;SDS011;41776;48.260;8.928;2023-09-08T09:39:24;9.55;;;6.22;;
1725;SDS011;41776;48.260;8.928;2023-09-08T09:41:52;9.25;;;5.72;;
1725;SDS011;41776;48.260;8.928;2023-09-08T09:44:20;13.57;;;5.75;;
1725;SDS011;41776;48.260;8.928;2023-09-08T09:46:48;8.63;;;5.95;;
1725;SDS011;41776;48.260;8.928;2023-09-08T09:49:17;8.10;;;5.68;;
1725;SDS011;41776;48.260;8.928;2023-09-08T09:51:44;9.48;;;6.15;;
1725;SDS011;41776;48.260;8.928;2023-09-08T09:54:12;8.35;;;5.78;;
1725;SDS011;41776;48.260;8.928;2023-09-08T09:56:41;9.13;;;6.50;;
1725;SDS011;41776;48.260;8.928;2023-09-08T09:59:08;11.02;;;5.95;;
1725;SDS011;41776;48.260;8.928;2023-09-08T10:01:36;8.20;;;5.90;;
1725;SDS011;41776;48.260;8.928;2023-09-08T10:04:03;9.43;;;5.70;;
1725;SDS011;41776;48.260;8.928;2023-09-08T10:06:30;8.25;;;5.82;;
1725;SDS011;41776;48.260;8.928;2023-09-08T10:08:58;8.10;;;5.95;;
1725;SDS011;41776;48.260;8.928;2023-09-08T10:11:26;8.82;;;5.72;;
1725;SDS011;41776;48.260;8.928;2023-09-08T10:13:57;10.52;;;5.80;;
1725;SDS011;41776;48.260;8.928;2023-09-08T10:16:25;7.90;;;4.95;;
1725;SDS011;41776;48.260;8.928;2023-09-08T10:18:53;6.80;;;5.40;;
1725;SDS011;41776;48.260;8.928;2023-09-08T10:21:21;8.05;;;5.47;;
1725;SDS011;41776;48.260;8.928;2023-09-08T10:23:54;10.43;;;5.32;;
1725;SDS011;41776;48.260;8.928;2023-09-08T10:26:26;7.72;;;5.45;;
1725;SDS011;41776;48.260;8.928;2023-09-08T10:28:53;6.65;;;4.68;;
1725;SDS011;41776;48.260;8.928;2023-09-08T10:31:23;8.82;;;5.40;;
1725;SDS011;41776;48.260;8.928;2023-09-08T10:33:52;10.10;;;5.35;;
1725;SDS011;41776;48.260;8.928;2023-09-08T10:36:20;9.27;;;5.18;;
1725;SDS011;41776;48.260;8.928;2023-09-08T10:38:46;9.38;;;4.93;;
1725;SDS011;41776;48.260;8.928;2023-09-08T10:41:28;8.25;;;4.68;;
1725;SDS011;41776;48.260;8.928;2023-09-08T10:44:01;6.95;;;4.80;;
1725;SDS011;41776;48.260;8.928;2023-09-08T10:46:31;9.05;;;5.15;;
1725;SDS011;41776;48.260;8.928;2023-09-08T10:49:02;5.95;;;4.07;;
1725;SDS011;41776;48.260;8.928;2023-09-08T10:51:30;7.57;;;4.60;;
1725;SDS011;41776;48.260;8.928;2023-09-08T10:53:56;7.90;;;4.15;;
1725;SDS011;41776;48.260;8.928;2023-09-08T10:56:26;5.63;;;4.43;;
1725;SDS011;41776;48.260;8.928;2023-09-08T10:58:54;8.32;;;5.20;;
1725;SDS011;41776;48.260;8.928;2023-09-08T11:01:21;9.80;;;4.57;;
1725;SDS011;41776;48.260;8.928;2023-09-08T11:03:53;9.40;;;4.95;;
1725;SDS011;41776;48.260;8.928;2023-09-08T11:06:20;7.28;;;4.47;;
1725;SDS011;41776;48.260;8.928;2023-09-08T11:08:48;8.05;;;4.85;;
1725;SDS011;41776;48.260;8.928;2023-09-08T11:11:18;5.75;;;4.35;;
1725;SDS011;41776;48.260;8.928;2023-09-08T11:13:44;5.88;;;4.57;;
1725;SDS011;41776;48.260;8.928;2023-09-08T11:16:11;6.22;;;4.35;;
1725;SDS011;41776;48.260;8.928;2023-09-08T11:18:39;7.88;;;4.43;;
1725;SDS011;41776;48.260;8.928;2023-09-08T11:21:09;10.25;;;4.65;;
1725;SDS011;41776;48.260;8.928;2023-09-08T11:23:36;5.97;;;3.97;;
1725;SDS011;41776;48.260;8.928;2023-09-08T11:26:03;8.50;;;4.72;;
1725;SDS011;41776;48.260;8.928;2023-09-08T11:28:31;5.95;;;4.18;;
1725;SDS011;41776;48.260;8.928;2023-09-08T11:30:57;5.30;;;4.25;;
1725;SDS011;41776;48.260;8.928;2023-09-08T11:33:24;6.07;;;4.10;;
1725;SDS011;41776;48.260;8.928;2023-09-08T11:35:51;7.00;;;4.07;;
1725;SDS011;41776;48.260;8.928;2023-09-08T11:38:22;6.00;;;3.97;;
1725;SDS011;41776;48.260;8.928;2023-09-08T11:40:51;8.52;;;4.40;;
1725;SDS011;41776;48.260;8.928;2023-09-08T11:43:18;6.97;;;4.25;;
1725;SDS011;41776;48.260;8.928;2023-09-08T11:45:45;7.22;;;4.10;;
1725;SDS011;41776;48.260;8.928;2023-09-08T11:48:13;7.80;;;4.32;;
1725;SDS011;41776;48.260;8.928;2023-09-08T11:50:40;11.27;;;4.53;;
1725;SDS011;41776;48.260;8.928;2023-09-08T11:53:07;8.60;;;4.40;;
1725;SDS011;41776;48.260;8.928;2023-09-08T11:55:35;6.40;;;4.55;;
1725;SDS011;41776;48.260;8.928;2023-09-08T11:58:02;7.75;;;4.40;;
1725;SDS011;41776;48.260;8.928;2023-09-08T12:00:29;7.60;;;5.03;;
1725;SDS011;41776;48.260;8.928;2023-09-08T12:03:08;7.85;;;4.22;;
1725;SDS011;41776;48.260;8.928;2023-09-08T12:05:36;6.43;;;4.45;;
1725;SDS011;41776;48.260;8.928;2023-09-08T12:08:03;12.25;;;7.07;;
1725;SDS011;41776;48.260;8.928;2023-09-08T12:10:38;7.70;;;4.85;;
1725;SDS011;41776;48.260;8.928;2023-09-08T12:13:06;7.43;;;4.50;;
1725;SDS011;41776;48.260;8.928;2023-09-08T12:15:32;5.15;;;4.18;;
1725;SDS011;41776;48.260;8.928;2023-09-08T12:18:00;5.28;;;4.07;;
1725;SDS011;41776;48.260;8.928;2023-09-08T12:20:28;5.13;;;4.07;;
1725;SDS011;41776;48.260;8.928;2023-09-08T12:22:56;6.68;;;4.18;;
1725;SDS011;41776;48.260;8.928;2023-09-08T12:25:23;7.70;;;4.72;;
1725;SDS011;41776;48.260;8.928;2023-09-08T12:27:52;6.07;;;4.20;;
1725;SDS011;41776;48.260;8.928;2023-09-08T12:30:19;7.57;;;4.40;;
1725;SDS011;41776;48.260;8.928;2023-09-08T12:32:47;6.70;;;4.20;;
1725;SDS011;41776;48.260;8.928;2023-09-08T12:35:19;7.53;;;4.75;;
1725;SDS011;41776;48.260;8.928;2023-09-08T12:37:53;6.18;;;4.28;;
1725;SDS011;41776;48.260;8.928;2023-09-08T12:40:23;6.40;;;4.22;;
1725;SDS011;41776;48.260;8.928;2023-09-08T12:42:49;5.68;;;4.05;;
1725;SDS011;41776;48.260;8.928;2023-09-08T12:45:17;7.03;;;4.70;;
1725;SDS011;41776;48.260;8.928;2023-09-08T12:47:44;9.17;;;4.67;;
1725;SDS011;41776;48.260;8.928;2023-09-08T12:50:11;4.57;;;3.72;;
1725;SDS011;41776;48.260;8.928;2023-09-08T12:52:38;8.05;;;4.25;;
1725;SDS011;41776;48.260;8.928;2023-09-08T12:55:04;5.78;;;4.28;;
1725;SDS011;41776;48.260;8.928;2023-09-08T12:57:31;6.03;;;4.15;;
1725;SDS011;41776;48.260;8.928;2023-09-08T12:59:59;5.45;;;3.90;;
1725;SDS011;41776;48.260;8.928;2023-09-08T13:02:25;7.80;;;4.68;;
1725;SDS011;41776;48.260;8.928;2023-09-08T13:04:52;5.22;;;4.28;;
1725;SDS011;41776;48.260;8.928;2023-09-08T13:07:20;7.88;;;4.30;;
1725;SDS011;41776;48.260;8.928;2023-09-08T13:09:46;7.40;;;4.35;;
1725;SDS011;41776;48.260;8.928;2023-09-08T13:12:13;5.30;;;4.10;;
1725;SDS011;41776;48.260;8.928;2023-09-08T13:14:39;8.48;;;4.30;;
1725;SDS011;41776;48.260;8.928;2023-09-08T13:17:07;9.23;;;4.70;;
1725;SDS011;41776;48.260;8.928;2023-09-08T13:19:34;6.68;;;4.43;;
1725;SDS011;41776;48.260;8.928;2023-09-08T13:22:00;6.43;;;4.63;;
1725;SDS011;41776;48.260;8.928;2023-09-08T13:24:27;5.68;;;4.22;;
1725;SDS011;41776;48.260;8.928;2023-09-08T13:26:53;5.93;;;4.40;;
1725;SDS011;41776;48.260;8.928;2023-09-08T13:29:20;6.85;;;4.65;;
1725;SDS011;41776;48.260;8.928;2023-09-08T13:31:46;5.68;;;4.50;;
1725;SDS011;41776;48.260;8.928;2023-09-08T13:34:14;7.15;;;4.82;;
1725;SDS011;41776;48.260;8.928;2023-09-08T13:36:40;7.60;;;4.65;;
1725;SDS011;41776;48.260;8.928;2023-09-08T13:39:07;6.55;;;4.43;;
1725;SDS011;41776;48.260;8.928;2023-09-08T13:41:44;5.28;;;4.28;;
1725;SDS011;41776;48.260;8.928;2023-09-08T13:44:15;5.57;;;4.72;;
1725;SDS011;41776;48.260;8.928;2023-09-08T13:46:42;5.72;;;4.20;;
1725;SDS011;41776;48.260;8.928;2023-09-08T13:49:09;5.72;;;4.03;;
1725;SDS011;41776;48.260;8.928;2023-09-08T13:51:37;6.90;;;4.32;;
1725;SDS011;41776;48.260;8.928;2023-09-08T13:54:04;5.25;;;4.32;;
1725;SDS011;41776;48.260;8.928;2023-09-08T13:56:30;5.97;;;4.40;;
1725;SDS011;41776;48.260;8.928;2023-09-08T13:58:57;4.68;;;3.70;;
1725;SDS011;41776;48.260;8.928;2023-09-08T14:01:23;8.10;;;4.30;;
1725;SDS011;41776;48.260;8.928;2023-09-08T14:03:52;6.15;;;4.10;;
1725;SDS011;41776;48.260;8.928;2023-09-08T14:06:19;7.65;;;4.30;;
1725;SDS011;41776;48.260;8.928;2023-09-08T14:08:47;5.65;;;4.15;;
1725;SDS011;41776;48.260;8.928;2023-09-08T14:11:13;3.85;;;3.45;;
1725;SDS011;41776;48.260;8.928;2023-09-08T14:13:40;5.55;;;3.72;;
1725;SDS011;41776;48.260;8.928;2023-09-08T14:16:08;5.90;;;3.65;;
1725;SDS011;41776;48.260;8.928;2023-09-08T14:18:34;6.35;;;3.50;;
1725;SDS011;41776;48.260;8.928;2023-09-08T14:21:00;4.80;;;3.50;;
1725;SDS011;41776;48.260;8.928;2023-09-08T14:23:27;6.47;;;3.20;;
1725;SDS011;41776;48.260;8.928;2023-09-08T14:25:55;6.75;;;3.05;;
1725;SDS011;41776;48.260;8.928;2023-09-08T14:28:22;4.47;;;3.40;;
1725;SDS011;41776;48.260;8.928;2023-09-08T14:30:49;5.40;;;3.00;;
1725;SDS011;41776;48.260;8.928;2023-09-08T14:33:16;4.43;;;3.00;;
1725;SDS011;41776;48.260;8.928;2023-09-08T14:35:43;5.22;;;3.20;;
1725;SDS011;41776;48.260;8.928;2023-09-08T14:38:11;5.07;;;3.03;;
1725;SDS011;41776;48.260;8.928;2023-09-08T14:40:38;4.72;;;2.70;;
1725;SDS011;41776;48.260;8.928;2023-09-08T14:43:06;6.57;;;3.20;;
1725;SDS011;41776;48.260;8.928;2023-09-08T14:45:32;4.65;;;3.08;;
1725;SDS011;41776;48.260;8.928;2023-09-08T14:47:59;4.70;;;3.17;;
1725;SDS011;41776;48.260;8.928;2023-09-08T14:50:25;4.97;;;2.75;;
1725;SDS011;41776;48.260;8.928;2023-09-08T14:52:52;5.63;;;3.08;;
1725;SDS011;41776;48.260;8.928;2023-09-08T14:55:18;4.53;;;3.00;;
1725;SDS011;41776;48.260;8.928;2023-09-08T14:57:44;4.53;;;3.15;;
1725;SDS011;41776;48.260;8.928;2023-09-08T15:00:14;4.15;;;3.28;;